sensor_id;sensor_type;location;lat;lon;timestamp;temperature;humidity
4643;DHT22;2334;48.710;9.622;2023-06-10T00:01:37;17.30;99.90
4643;DHT22;2334;48.710;9.622;2023-06-10T00:04:04;17.40;99.90
4643;DHT22;2334;48.710;9.622;2023-06-10T00:06:31;17.40;99.90
4643;DHT22;2334;48.710;9.622;2023-06-10T00:09:01;17.50;99.90
4643;DHT22;2334;48.710;9.622;2023-06-10T00:11:30;17.50;99.90
4643;DHT22;2334;48.710;9.622;2023-06-10T00:13:58;17.50;99.90
4643;DHT22;2334;48.710;9.622;2023-06-10T00:16:25;17.50;99.90
4643;DHT22;2334;48.710;9.622;2023-06-10T00:18:53;17.50;99.90
4643;DHT22;2334;48.710;9.622;2023-06-10T00:21:21;17.50;99.90
4643;DHT22;2334;48.710;9.622;2023-06-10T00:23:50;17.30;99.90
4643;DHT22;2334;48.710;9.622;2023-06-10T00:26:17;17.30;99.90
4643;DHT22;2334;48.710;9.622;2023-06-10T00:28:44;17.30;99.90
4643;DHT22;2334;48.710;9.622;2023-06-10T00:31:12;17.20;99.90
4643;DHT22;2334;48.710;9.622;2023-06-10T00:33:39;17.20;99.90
4643;DHT22;2334;48.710;9.622;2023-06-10T00:36:06;17.10;99.90
4643;DHT22;2334;48.710;9.622;2023-06-10T00:38:33;17.10;99.90
4643;DHT22;2334;48.710;9.622;2023-06-10T00:41:00;17.10;99.90
4643;DHT22;2334;48.710;9.622;2023-06-10T00:43:27;17.00;99.90
4643;DHT22;2334;48.710;9.622;2023-06-10T00:45:54;17.00;99.90
4643;DHT22;2334;48.710;9.622;2023-06-10T00:48:22;17.10;99.90
4643;DHT22;2334;48.710;9.622;2023-06-10T00:50:50;17.10;99.90
4643;DHT22;2334;48.710;9.622;2023-06-10T00:53:17;17.00;99.90
4643;DHT22;2334;48.710;9.622;2023-06-10T00:55:44;17.10;99.90
4643;DHT22;2334;48.710;9.622;2023-06-10T00:58:11;17.10;99.90
4643;DHT22;2334;48.710;9.622;2023-06-10T01:00:39;17.10;99.90
4643;DHT22;2334;48.710;9.622;2023-06-10T01:03:06;17.00;99.90
4643;DHT22;2334;48.710;9.622;2023-06-10T01:05:34;17.00;99.90
4643;DHT22;2334;48.710;9.622;2023-06-10T01:08:07;17.10;99.90
4643;DHT22;2334;48.710;9.622;2023-06-10T01:10:41;17.10;99.90
4643;DHT22;2334;48.710;9.622;2023-06-10T01:13:10;17.10;99.90
4643;DHT22;2334;48.710;9.622;2023-06-10T01:15:38;17.10;99.90
4643;DHT22;2334;48.710;9.622;2023-06-10T01:18:07;17.10;99.90
4643;DHT22;2334;48.710;9.622;2023-06-10T01:20:37;17.10;99.90
4643;DHT22;2334;48.710;9.622;2023-06-10T01:23:07;17.10;99.90
4643;DHT22;2334;48.710;9.622;2023-06-10T01:25:37;17.00;99.90
4643;DHT22;2334;48.710;9.622;2023-06-10T01:28:09;16.90;99.90
4643;DHT22;2334;48.710;9.622;2023-06-10T01:30:42;16.80;99.90
4643;DHT22;2334;48.710;9.622;2023-06-10T01:33:13;16.80;99.90
4643;DHT22;2334;48.710;9.622;2023-06-10T01:35:41;16.70;99.90
4643;DHT22;2334;48.710;9.622;2023-06-10T01:38:12;16.50;99.90
4643;DHT22;2334;48.710;9.622;2023-06-10T01:40:41;16.50;99.90
4643;DHT22;2334;48.710;9.622;2023-06-10T01:43:09;16.50;99.90
4643;DHT22;2334;48.710;9.622;2023-06-10T01:45:36;16.50;99.90
4643;DHT22;2334;48.710;9.622;2023-06-10T01:48:03;16.50;99.90
4643;DHT22;2334;48.710;9.622;2023-06-10T01:50:30;16.50;99.90
4643;DHT22;2334;48.710;9.622;2023-06-10T01:52:57;16.50;99.90
4643;DHT22;2334;48.710;9.622;2023-06-10T01:55:28;16.40;99.90
4643;DHT22;2334;48.710;9.622;2023-06-10T01:57:55;16.30;99.90
4643;DHT22;2334;48.710;9.622;2023-06-10T02:00:22;16.30;99.90
4643;DHT22;2334;48.710;9.622;2023-06-10T02:02:49;16.30;99.90
4643;DHT22;2334;48.710;9.622;2023-06-10T02:05:16;16.20;99.90
4643;DHT22;2334;48.710;9.622;2023-06-10T02:07:43;16.30;99.90
4643;DHT22;2334;48.710;9.622;2023-06-10T02:10:10;16.30;99.90
4643;DHT22;2334;48.710;9.622;2023-06-10T02:12:38;16.30;99.90
4643;DHT22;2334;48.710;9.622;2023-06-10T02:15:05;16.30;99.90
4643;DHT22;2334;48.710;9.622;2023-06-10T02:17:32;16.40;99.90
4643;DHT22;2334;48.710;9.622;2023-06-10T02:19:59;16.30;99.90
4643;DHT22;2334;48.710;9.622;2023-06-10T02:22:32;16.20;99.90
4643;DHT22;2334;48.710;9.622;2023-06-10T02:25:01;16.20;99.90
4643;DHT22;2334;48.710;9.622;2023-06-10T02:27:29;16.20;99.90
4643;DHT22;2334;48.710;9.622;2023-06-10T02:29:58;16.30;99.90
4643;DHT22;2334;48.710;9.622;2023-06-10T02:32:25;16.20;99.90
4643;DHT22;2334;48.710;9.622;2023-06-10T02:34:52;16.20;99.90
4643;DHT22;2334;48.710;9.622;2023-06-10T02:37:19;16.20;99.90
4643;DHT22;2334;48.710;9.622;2023-06-10T02:39:47;16.20;99.90
4643;DHT22;2334;48.710;9.622;2023-06-10T02:42:13;16.20;99.90
4643;DHT22;2334;48.710;9.622;2023-06-10T02:44:40;15.90;99.90
4643;DHT22;2334;48.710;9.622;2023-06-10T02:47:09;15.90;99.90
4643;DHT22;2334;48.710;9.622;2023-06-10T02:49:35;16.00;99.90
4643;DHT22;2334;48.710;9.622;2023-06-10T02:52:03;16.00;99.90
4643;DHT22;2334;48.710;9.622;2023-06-10T02:54:30;16.10;99.90
4643;DHT22;2334;48.710;9.622;2023-06-10T02:56:57;16.00;99.90
4643;DHT22;2334;48.710;9.622;2023-06-10T02:59:23;15.90;99.90
4643;DHT22;2334;48.710;9.622;2023-06-10T03:01:52;16.00;99.90
4643;DHT22;2334;48.710;9.622;2023-06-10T03:04:20;16.00;99.90
4643;DHT22;2334;48.710;9.622;2023-06-10T03:06:49;16.00;99.90
4643;DHT22;2334;48.710;9.622;2023-06-10T03:09:15;16.10;99.90
4643;DHT22;2334;48.710;9.622;2023-06-10T03:11:42;16.10;99.90
4643;DHT22;2334;48.710;9.622;2023-06-10T03:14:09;16.20;99.90
4643;DHT22;2334;48.710;9.622;2023-06-10T03:16:36;16.10;99.90
4643;DHT22;2334;48.710;9.622;2023-06-10T03:19:06;16.10;99.90
4643;DHT22;2334;48.710;9.622;2023-06-10T03:21:34;16.10;99.90
4643;DHT22;2334;48.710;9.622;2023-06-10T03:24:03;16.10;99.90
4643;DHT22;2334;48.710;9.622;2023-06-10T03:26:30;16.10;99.90
4643;DHT22;2334;48.710;9.622;2023-06-10T03:28:57;16.10;99.90
4643;DHT22;2334;48.710;9.622;2023-06-10T03:31:24;16.10;99.90
4643;DHT22;2334;48.710;9.622;2023-06-10T03:33:51;16.00;99.90
4643;DHT22;2334;48.710;9.622;2023-06-10T03:36:18;16.00;99.90
4643;DHT22;2334;48.710;9.622;2023-06-10T03:38:46;15.90;99.90
4643;DHT22;2334;48.710;9.622;2023-06-10T03:41:13;16.00;99.90
4643;DHT22;2334;48.710;9.622;2023-06-10T03:43:40;15.90;99.90
4643;DHT22;2334;48.710;9.622;2023-06-10T03:46:07;15.90;99.90
4643;DHT22;2334;48.710;9.622;2023-06-10T03:48:34;15.60;99.90
4643;DHT22;2334;48.710;9.622;2023-06-10T03:51:01;15.60;99.90
4643;DHT22;2334;48.710;9.622;2023-06-10T03:53:28;15.70;99.90
4643;DHT22;2334;48.710;9.622;2023-06-10T03:55:56;15.70;99.90
4643;DHT22;2334;48.710;9.622;2023-06-10T03:58:24;15.80;99.90
4643;DHT22;2334;48.710;9.622;2023-06-10T04:00:51;15.80;99.90
4643;DHT22;2334;48.710;9.622;2023-06-10T04:03:19;15.80;99.90
4643;DHT22;2334;48.710;9.622;2023-06-10T04:05:46;15.90;99.90
4643;DHT22;2334;48.710;9.622;2023-06-10T04:08:13;15.90;99.90
4643;DHT22;2334;48.710;9.622;2023-06-10T04:10:40;15.90;99.90
4643;DHT22;2334;48.710;9.622;2023-06-10T04:13:08;15.90;99.90
4643;DHT22;2334;48.710;9.622;2023-06-10T04:15:35;16.00;99.90
4643;DHT22;2334;48.710;9.622;2023-06-10T04:18:02;16.00;99.90
4643;DHT22;2334;48.710;9.622;2023-06-10T04:20:29;15.90;99.90
4643;DHT22;2334;48.710;9.622;2023-06-10T04:22:56;15.90;99.90
4643;DHT22;2334;48.710;9.622;2023-06-10T04:25:23;15.90;99.90
4643;DHT22;2334;48.710;9.622;2023-06-10T04:27:51;15.90;99.90
4643;DHT22;2334;48.710;9.622;2023-06-10T04:30:20;16.00;99.90
4643;DHT22;2334;48.710;9.622;2023-06-10T04:32:47;16.00;99.90
4643;DHT22;2334;48.710;9.622;2023-06-10T04:35:15;16.10;99.90
4643;DHT22;2334;48.710;9.622;2023-06-10T04:37:42;16.20;99.90
4643;DHT22;2334;48.710;9.622;2023-06-10T04:40:09;16.20;99.90
4643;DHT22;2334;48.710;9.622;2023-06-10T04:42:37;16.30;99.90
4643;DHT22;2334;48.710;9.622;2023-06-10T04:45:05;16.30;99.90
4643;DHT22;2334;48.710;9.622;2023-06-10T04:47:33;16.40;99.90
4643;DHT22;2334;48.710;9.622;2023-06-10T04:50:01;16.50;99.90
4643;DHT22;2334;48.710;9.622;2023-06-10T04:52:28;16.60;99.90
4643;DHT22;2334;48.710;9.622;2023-06-10T04:54:55;16.60;99.90
4643;DHT22;2334;48.710;9.622;2023-06-10T04:57:22;16.70;99.90
4643;DHT22;2334;48.710;9.622;2023-06-10T04:59:48;16.80;99.90
4643;DHT22;2334;48.710;9.622;2023-06-10T05:02:15;16.80;99.90
4643;DHT22;2334;48.710;9.622;2023-06-10T05:04:43;16.80;99.90
4643;DHT22;2334;48.710;9.622;2023-06-10T05:07:10;16.90;99.90
4643;DHT22;2334;48.710;9.622;2023-06-10T05:09:37;17.00;99.90
4643;DHT22;2334;48.710;9.622;2023-06-10T05:12:05;17.10;99.90
4643;DHT22;2334;48.710;9.622;2023-06-10T05:14:32;17.20;99.90
4643;DHT22;2334;48.710;9.622;2023-06-10T05:16:59;17.30;99.90
4643;DHT22;2334;48.710;9.622;2023-06-10T05:19:26;17.40;99.90
4643;DHT22;2334;48.710;9.622;2023-06-10T05:21:54;17.40;99.90
4643;DHT22;2334;48.710;9.622;2023-06-10T05:24:21;17.50;99.90
4643;DHT22;2334;48.710;9.622;2023-06-10T05:26:48;17.60;99.90
4643;DHT22;2334;48.710;9.622;2023-06-10T05:29:15;17.70;99.90
4643;DHT22;2334;48.710;9.622;2023-06-10T05:31:42;17.80;99.90
4643;DHT22;2334;48.710;9.622;2023-06-10T05:34:09;17.90;99.90
4643;DHT22;2334;48.710;9.622;2023-06-10T05:36:36;18.00;99.90
4643;DHT22;2334;48.710;9.622;2023-06-10T05:39:04;18.10;99.90
4643;DHT22;2334;48.710;9.622;2023-06-10T05:41:31;18.20;99.90
4643;DHT22;2334;48.710;9.622;2023-06-10T05:43:58;18.20;99.90
4643;DHT22;2334;48.710;9.622;2023-06-10T05:46:25;18.30;99.90
4643;DHT22;2334;48.710;9.622;2023-06-10T05:48:52;18.40;99.90
4643;DHT22;2334;48.710;9.622;2023-06-10T05:51:19;18.50;99.90
4643;DHT22;2334;48.710;9.622;2023-06-10T05:53:46;18.60;99.90
4643;DHT22;2334;48.710;9.622;2023-06-10T05:56:14;18.80;99.90
4643;DHT22;2334;48.710;9.622;2023-06-10T05:58:41;18.90;99.90
4643;DHT22;2334;48.710;9.622;2023-06-10T06:01:08;19.00;99.90
4643;DHT22;2334;48.710;9.622;2023-06-10T06:03:34;19.00;99.90
4643;DHT22;2334;48.710;9.622;2023-06-10T06:06:02;19.10;99.90
4643;DHT22;2334;48.710;9.622;2023-06-10T06:08:29;19.30;99.90
4643;DHT22;2334;48.710;9.622;2023-06-10T06:10:56;19.40;99.90
4643;DHT22;2334;48.710;9.622;2023-06-10T06:13:24;19.60;99.90
4643;DHT22;2334;48.710;9.622;2023-06-10T06:15:51;19.70;99.90
4643;DHT22;2334;48.710;9.622;2023-06-10T06:18:18;19.80;99.90
4643;DHT22;2334;48.710;9.622;2023-06-10T06:20:45;19.90;99.90
4643;DHT22;2334;48.710;9.622;2023-06-10T06:23:12;20.10;99.90
4643;DHT22;2334;48.710;9.622;2023-06-10T06:25:39;20.20;99.90
4643;DHT22;2334;48.710;9.622;2023-06-10T06:28:06;20.40;99.90
4643;DHT22;2334;48.710;9.622;2023-06-10T06:30:35;20.60;99.90
4643;DHT22;2334;48.710;9.622;2023-06-10T06:33:02;20.70;99.90
4643;DHT22;2334;48.710;9.622;2023-06-10T06:35:30;20.80;99.90
4643;DHT22;2334;48.710;9.622;2023-06-10T06:37:58;20.90;99.90
4643;DHT22;2334;48.710;9.622;2023-06-10T06:40:25;21.10;99.90
4643;DHT22;2334;48.710;9.622;2023-06-10T06:42:52;21.20;99.90
4643;DHT22;2334;48.710;9.622;2023-06-10T06:45:19;21.40;99.90
4643;DHT22;2334;48.710;9.622;2023-06-10T06:47:47;21.30;99.90
4643;DHT22;2334;48.710;9.622;2023-06-10T06:50:14;21.40;99.90
4643;DHT22;2334;48.710;9.622;2023-06-10T06:52:42;21.50;99.90
4643;DHT22;2334;48.710;9.622;2023-06-10T06:55:08;21.80;99.90
4643;DHT22;2334;48.710;9.622;2023-06-10T06:57:35;21.90;99.90
4643;DHT22;2334;48.710;9.622;2023-06-10T07:00:04;21.90;99.90
4643;DHT22;2334;48.710;9.622;2023-06-10T07:02:31;22.10;99.90
4643;DHT22;2334;48.710;9.622;2023-06-10T07:05:00;22.30;99.90
4643;DHT22;2334;48.710;9.622;2023-06-10T07:07:26;22.40;99.90
4643;DHT22;2334;48.710;9.622;2023-06-10T07:09:53;22.40;99.90
4643;DHT22;2334;48.710;9.622;2023-06-10T07:12:20;22.60;99.90
4643;DHT22;2334;48.710;9.622;2023-06-10T07:14:49;22.60;99.90
4643;DHT22;2334;48.710;9.622;2023-06-10T07:17:16;22.70;99.90
4643;DHT22;2334;48.710;9.622;2023-06-10T07:19:43;22.40;99.90
4643;DHT22;2334;48.710;9.622;2023-06-10T07:22:18;22.70;99.90
4643;DHT22;2334;48.710;9.622;2023-06-10T07:24:45;22.90;99.90
4643;DHT22;2334;48.710;9.622;2023-06-10T07:27:12;23.30;99.90
4643;DHT22;2334;48.710;9.622;2023-06-10T07:29:39;23.60;99.90
4643;DHT22;2334;48.710;9.622;2023-06-10T07:32:06;23.80;99.90
4643;DHT22;2334;48.710;9.622;2023-06-10T07:34:33;23.80;99.90
4643;DHT22;2334;48.710;9.622;2023-06-10T07:37:00;23.70;99.90
4643;DHT22;2334;48.710;9.622;2023-06-10T07:39:28;23.70;99.90
4643;DHT22;2334;48.710;9.622;2023-06-10T07:41:55;23.80;99.90
4643;DHT22;2334;48.710;9.622;2023-06-10T07:44:22;24.10;99.90
4643;DHT22;2334;48.710;9.622;2023-06-10T07:46:49;24.20;99.90
4643;DHT22;2334;48.710;9.622;2023-06-10T07:49:16;24.40;99.90
4643;DHT22;2334;48.710;9.622;2023-06-10T07:51:43;24.60;99.90
4643;DHT22;2334;48.710;9.622;2023-06-10T07:54:10;24.60;99.90
4643;DHT22;2334;48.710;9.622;2023-06-10T07:56:39;24.80;99.90
4643;DHT22;2334;48.710;9.622;2023-06-10T07:59:06;24.80;99.90
4643;DHT22;2334;48.710;9.622;2023-06-10T08:01:32;25.00;99.90
4643;DHT22;2334;48.710;9.622;2023-06-10T08:04:01;24.90;99.90
4643;DHT22;2334;48.710;9.622;2023-06-10T08:06:28;24.80;99.90
4643;DHT22;2334;48.710;9.622;2023-06-10T08:08:55;24.90;99.90
4643;DHT22;2334;48.710;9.622;2023-06-10T08:11:21;25.00;99.90
4643;DHT22;2334;48.710;9.622;2023-06-10T08:13:50;25.20;99.90
4643;DHT22;2334;48.710;9.622;2023-06-10T08:16:17;25.40;99.90
4643;DHT22;2334;48.710;9.622;2023-06-10T08:18:43;25.40;99.90
4643;DHT22;2334;48.710;9.622;2023-06-10T08:21:10;25.40;99.90
4643;DHT22;2334;48.710;9.622;2023-06-10T08:23:37;25.60;99.90
4643;DHT22;2334;48.710;9.622;2023-06-10T08:26:04;25.50;99.90
4643;DHT22;2334;48.710;9.622;2023-06-10T08:28:31;25.90;99.90
4643;DHT22;2334;48.710;9.622;2023-06-10T08:30:59;26.10;99.90
4643;DHT22;2334;48.710;9.622;2023-06-10T08:33:26;26.40;99.90
4643;DHT22;2334;48.710;9.622;2023-06-10T08:35:53;26.30;99.90
4643;DHT22;2334;48.710;9.622;2023-06-10T08:38:20;26.10;99.90
4643;DHT22;2334;48.710;9.622;2023-06-10T08:40:47;26.30;99.90
4643;DHT22;2334;48.710;9.622;2023-06-10T08:43:19;26.30;99.90
4643;DHT22;2334;48.710;9.622;2023-06-10T08:45:49;25.90;99.90
4643;DHT22;2334;48.710;9.622;2023-06-10T08:48:19;26.50;99.90
4643;DHT22;2334;48.710;9.622;2023-06-10T08:50:47;26.40;99.90
4643;DHT22;2334;48.710;9.622;2023-06-10T08:53:18;26.10;99.90
4643;DHT22;2334;48.710;9.622;2023-06-10T08:55:50;25.50;99.90
4643;DHT22;2334;48.710;9.622;2023-06-10T08:58:18;25.40;99.90
4643;DHT22;2334;48.710;9.622;2023-06-10T09:00:45;25.60;99.90
4643;DHT22;2334;48.710;9.622;2023-06-10T09:03:16;26.00;99.90
4643;DHT22;2334;48.710;9.622;2023-06-10T09:05:45;26.30;99.90
4643;DHT22;2334;48.710;9.622;2023-06-10T09:08:12;26.70;99.90
4643;DHT22;2334;48.710;9.622;2023-06-10T09:10:40;26.90;99.90
4643;DHT22;2334;48.710;9.622;2023-06-10T09:13:08;27.30;99.90
4643;DHT22;2334;48.710;9.622;2023-06-10T09:16:00;27.30;99.90
4643;DHT22;2334;48.710;9.622;2023-06-10T09:18:28;27.40;99.90
4643;DHT22;2334;48.710;9.622;2023-06-10T09:20:56;27.00;99.90
4643;DHT22;2334;48.710;9.622;2023-06-10T09:23:23;26.50;99.90
4643;DHT22;2334;48.710;9.622;2023-06-10T09:29:14;26.30;99.90
4643;DHT22;2334;48.710;9.622;2023-06-10T09:31:45;26.20;99.90
4643;DHT22;2334;48.710;9.622;2023-06-10T09:34:15;26.20;99.90
4643;DHT22;2334;48.710;9.622;2023-06-10T09:36:44;26.10;99.90
4643;DHT22;2334;48.710;9.622;2023-06-10T09:39:16;26.00;99.90
4643;DHT22;2334;48.710;9.622;2023-06-10T09:41:44;26.10;99.90
4643;DHT22;2334;48.710;9.622;2023-06-10T09:44:14;25.80;99.90
4643;DHT22;2334;48.710;9.622;2023-06-10T09:46:42;25.70;99.90
4643;DHT22;2334;48.710;9.622;2023-06-10T09:49:11;26.20;99.90
4643;DHT22;2334;48.710;9.622;2023-06-10T09:51:38;26.80;99.90
4643;DHT22;2334;48.710;9.622;2023-06-10T09:54:16;27.40;99.90
4643;DHT22;2334;48.710;9.622;2023-06-10T09:56:46;28.00;99.90
4643;DHT22;2334;48.710;9.622;2023-06-10T09:59:14;28.20;99.90
4643;DHT22;2334;48.710;9.622;2023-06-10T10:01:41;28.60;99.90
4643;DHT22;2334;48.710;9.622;2023-06-10T10:04:08;28.50;99.90
4643;DHT22;2334;48.710;9.622;2023-06-10T10:06:35;28.90;99.90
4643;DHT22;2334;48.710;9.622;2023-06-10T10:09:03;29.30;99.90
4643;DHT22;2334;48.710;9.622;2023-06-10T10:11:33;29.40;99.90
4643;DHT22;2334;48.710;9.622;2023-06-10T10:14:04;29.50;99.90
4643;DHT22;2334;48.710;9.622;2023-06-10T10:16:35;28.80;99.90
4643;DHT22;2334;48.710;9.622;2023-06-10T10:19:07;28.20;99.90
4643;DHT22;2334;48.710;9.622;2023-06-10T10:21:42;28.00;99.90
4643;DHT22;2334;48.710;9.622;2023-06-10T10:24:14;28.00;99.90
4643;DHT22;2334;48.710;9.622;2023-06-10T10:26:45;28.10;99.90
4643;DHT22;2334;48.710;9.622;2023-06-10T10:29:19;28.60;99.90
4643;DHT22;2334;48.710;9.622;2023-06-10T10:31:49;28.50;99.90
4643;DHT22;2334;48.710;9.622;2023-06-10T10:34:21;28.40;99.90
4643;DHT22;2334;48.710;9.622;2023-06-10T10:36:50;28.20;99.90
4643;DHT22;2334;48.710;9.622;2023-06-10T10:39:17;27.70;99.90
4643;DHT22;2334;48.710;9.622;2023-06-10T10:41:46;27.50;99.90
4643;DHT22;2334;48.710;9.622;2023-06-10T10:44:14;27.70;99.90
4643;DHT22;2334;48.710;9.622;2023-06-10T10:46:42;27.90;99.90
4643;DHT22;2334;48.710;9.622;2023-06-10T10:49:11;27.60;99.90
4643;DHT22;2334;48.710;9.622;2023-06-10T10:51:54;27.40;99.90
4643;DHT22;2334;48.710;9.622;2023-06-10T10:54:28;27.50;99.90
4643;DHT22;2334;48.710;9.622;2023-06-10T10:57:13;27.70;99.90
4643;DHT22;2334;48.710;9.622;2023-06-10T10:59:44;28.10;99.90
4643;DHT22;2334;48.710;9.622;2023-06-10T11:02:15;28.40;99.90
4643;DHT22;2334;48.710;9.622;2023-06-10T11:04:45;29.20;99.90
4643;DHT22;2334;48.710;9.622;2023-06-10T11:07:12;29.60;99.90
4643;DHT22;2334;48.710;9.622;2023-06-10T11:09:57;29.50;99.90
4643;DHT22;2334;48.710;9.622;2023-06-10T11:12:29;29.50;99.90
4643;DHT22;2334;48.710;9.622;2023-06-10T11:15:06;29.80;99.90
4643;DHT22;2334;48.710;9.622;2023-06-10T11:17:33;30.10;99.90
4643;DHT22;2334;48.710;9.622;2023-06-10T11:20:00;29.60;99.60
4643;DHT22;2334;48.710;9.622;2023-06-10T11:22:27;29.30;99.90
4643;DHT22;2334;48.710;9.622;2023-06-10T11:24:54;28.80;99.90
4643;DHT22;2334;48.710;9.622;2023-06-10T11:27:21;29.00;99.90
4643;DHT22;2334;48.710;9.622;2023-06-10T11:29:58;29.70;99.90
4643;DHT22;2334;48.710;9.622;2023-06-10T11:32:29;30.10;99.90
4643;DHT22;2334;48.710;9.622;2023-06-10T11:34:57;30.70;99.10
4643;DHT22;2334;48.710;9.622;2023-06-10T11:37:24;30.50;99.00
4643;DHT22;2334;48.710;9.622;2023-06-10T11:39:52;30.60;99.10
4643;DHT22;2334;48.710;9.622;2023-06-10T11:42:19;30.30;98.50
4643;DHT22;2334;48.710;9.622;2023-06-10T11:44:50;29.60;99.00
4643;DHT22;2334;48.710;9.622;2023-06-10T11:47:19;29.00;99.30
4643;DHT22;2334;48.710;9.622;2023-06-10T11:49:56;28.90;99.20
4643;DHT22;2334;48.710;9.622;2023-06-10T11:52:26;29.60;99.10
4643;DHT22;2334;48.710;9.622;2023-06-10T11:54:54;30.20;99.20
4643;DHT22;2334;48.710;9.622;2023-06-10T11:57:21;30.60;98.70
4643;DHT22;2334;48.710;9.622;2023-06-10T11:59:48;30.40;98.70
4643;DHT22;2334;48.710;9.622;2023-06-10T12:02:15;30.60;98.50
4643;DHT22;2334;48.710;9.622;2023-06-10T12:04:47;30.10;98.50
4643;DHT22;2334;48.710;9.622;2023-06-10T12:07:17;29.40;98.80
4643;DHT22;2334;48.710;9.622;2023-06-10T12:09:45;29.40;99.10
4643;DHT22;2334;48.710;9.622;2023-06-10T12:12:12;29.80;99.20
4643;DHT22;2334;48.710;9.622;2023-06-10T12:14:53;29.90;98.20
4643;DHT22;2334;48.710;9.622;2023-06-10T12:17:22;29.70;99.40
4643;DHT22;2334;48.710;9.622;2023-06-10T12:19:51;30.00;98.10
4643;DHT22;2334;48.710;9.622;2023-06-10T12:22:18;30.30;98.50
4643;DHT22;2334;48.710;9.622;2023-06-10T12:24:56;30.90;97.90
4643;DHT22;2334;48.710;9.622;2023-06-10T12:27:25;30.40;97.70
4643;DHT22;2334;48.710;9.622;2023-06-10T12:29:53;30.10;97.00
4643;DHT22;2334;48.710;9.622;2023-06-10T12:32:22;30.50;96.80
4643;DHT22;2334;48.710;9.622;2023-06-10T12:35:04;30.60;96.70
4643;DHT22;2334;48.710;9.622;2023-06-10T12:37:31;30.70;96.50
4643;DHT22;2334;48.710;9.622;2023-06-10T12:40:00;31.10;95.90
4643;DHT22;2334;48.710;9.622;2023-06-10T12:42:28;31.70;95.60
4643;DHT22;2334;48.710;9.622;2023-06-10T12:44:56;31.90;94.80
4643;DHT22;2334;48.710;9.622;2023-06-10T12:47:29;31.60;93.90
4643;DHT22;2334;48.710;9.622;2023-06-10T12:49:58;31.70;94.10
4643;DHT22;2334;48.710;9.622;2023-06-10T12:52:26;31.90;94.80
4643;DHT22;2334;48.710;9.622;2023-06-10T12:54:53;32.60;94.60
4643;DHT22;2334;48.710;9.622;2023-06-10T12:57:20;32.70;94.10
4643;DHT22;2334;48.710;9.622;2023-06-10T12:59:48;32.60;94.10
4643;DHT22;2334;48.710;9.622;2023-06-10T13:02:18;31.70;94.70
4643;DHT22;2334;48.710;9.622;2023-06-10T13:04:46;31.00;94.90
4643;DHT22;2334;48.710;9.622;2023-06-10T13:07:13;30.80;94.80
4643;DHT22;2334;48.710;9.622;2023-06-10T13:09:41;30.20;95.50
4643;DHT22;2334;48.710;9.622;2023-06-10T13:12:09;29.80;95.30
4643;DHT22;2334;48.710;9.622;2023-06-10T13:14:36;29.80;95.60
4643;DHT22;2334;48.710;9.622;2023-06-10T13:17:04;29.50;95.80
4643;DHT22;2334;48.710;9.622;2023-06-10T13:19:32;30.10;95.90
4643;DHT22;2334;48.710;9.622;2023-06-10T13:21:59;30.60;95.40
4643;DHT22;2334;48.710;9.622;2023-06-10T13:24:26;31.20;94.90
4643;DHT22;2334;48.710;9.622;2023-06-10T13:26:55;31.50;94.30
4643;DHT22;2334;48.710;9.622;2023-06-10T13:29:23;31.00;94.50
4643;DHT22;2334;48.710;9.622;2023-06-10T13:31:49;30.90;94.70
4643;DHT22;2334;48.710;9.622;2023-06-10T13:34:16;30.70;95.00
4643;DHT22;2334;48.710;9.622;2023-06-10T13:36:43;30.20;96.00
4643;DHT22;2334;48.710;9.622;2023-06-10T13:39:10;30.30;96.10
4643;DHT22;2334;48.710;9.622;2023-06-10T13:41:40;30.20;96.50
4643;DHT22;2334;48.710;9.622;2023-06-10T13:44:08;30.30;96.40
4643;DHT22;2334;48.710;9.622;2023-06-10T13:46:35;30.00;96.10
4643;DHT22;2334;48.710;9.622;2023-06-10T13:49:02;30.20;96.40
4643;DHT22;2334;48.710;9.622;2023-06-10T13:51:29;30.70;96.20
4643;DHT22;2334;48.710;9.622;2023-06-10T13:53:55;30.90;95.30
4643;DHT22;2334;48.710;9.622;2023-06-10T13:56:22;31.00;95.30
4643;DHT22;2334;48.710;9.622;2023-06-10T13:58:50;31.50;95.00
4643;DHT22;2334;48.710;9.622;2023-06-10T14:01:18;31.30;94.80
4643;DHT22;2334;48.710;9.622;2023-06-10T14:03:45;31.70;95.10
4643;DHT22;2334;48.710;9.622;2023-06-10T14:06:12;31.60;95.00
4643;DHT22;2334;48.710;9.622;2023-06-10T14:08:43;31.20;95.00
4643;DHT22;2334;48.710;9.622;2023-06-10T14:11:10;31.40;94.90
4643;DHT22;2334;48.710;9.622;2023-06-10T14:13:37;31.40;94.20
4643;DHT22;2334;48.710;9.622;2023-06-10T14:16:05;31.60;94.10
4643;DHT22;2334;48.710;9.622;2023-06-10T14:18:33;30.90;94.40
4643;DHT22;2334;48.710;9.622;2023-06-10T14:21:00;30.30;94.20
4643;DHT22;2334;48.710;9.622;2023-06-10T14:23:27;30.80;94.40
4643;DHT22;2334;48.710;9.622;2023-06-10T14:25:54;31.10;94.20
4643;DHT22;2334;48.710;9.622;2023-06-10T14:28:20;31.30;94.20
4643;DHT22;2334;48.710;9.622;2023-06-10T14:30:49;31.70;94.80
4643;DHT22;2334;48.710;9.622;2023-06-10T14:33:16;32.10;94.80
4643;DHT22;2334;48.710;9.622;2023-06-10T14:35:44;32.30;94.20
4643;DHT22;2334;48.710;9.622;2023-06-10T14:38:11;32.30;94.20
4643;DHT22;2334;48.710;9.622;2023-06-10T14:40:38;32.40;93.90
4643;DHT22;2334;48.710;9.622;2023-06-10T14:43:05;32.30;93.70
4643;DHT22;2334;48.710;9.622;2023-06-10T14:45:35;31.80;93.90
4643;DHT22;2334;48.710;9.622;2023-06-10T14:48:02;32.00;93.70
4643;DHT22;2334;48.710;9.622;2023-06-10T14:50:29;32.30;93.40
4643;DHT22;2334;48.710;9.622;2023-06-10T14:52:57;32.50;93.20
4643;DHT22;2334;48.710;9.622;2023-06-10T14:55:24;33.00;92.90
4643;DHT22;2334;48.710;9.622;2023-06-10T14:57:51;33.10;92.90
4643;DHT22;2334;48.710;9.622;2023-06-10T15:00:18;33.20;92.50
4643;DHT22;2334;48.710;9.622;2023-06-10T15:02:48;33.10;92.20
4643;DHT22;2334;48.710;9.622;2023-06-10T15:05:15;33.20;92.10
4643;DHT22;2334;48.710;9.622;2023-06-10T15:07:43;32.70;91.60
4643;DHT22;2334;48.710;9.622;2023-06-10T15:10:11;32.10;92.10
4643;DHT22;2334;48.710;9.622;2023-06-10T15:12:38;31.70;92.30
4643;DHT22;2334;48.710;9.622;2023-06-10T15:15:06;31.30;92.80
4643;DHT22;2334;48.710;9.622;2023-06-10T15:17:33;31.30;92.30
4643;DHT22;2334;48.710;9.622;2023-06-10T15:19:59;32.00;92.10
4643;DHT22;2334;48.710;9.622;2023-06-10T15:22:26;32.50;92.80
4643;DHT22;2334;48.710;9.622;2023-06-10T15:24:53;33.00;91.50
4643;DHT22;2334;48.710;9.622;2023-06-10T15:27:22;33.20;91.70
4643;DHT22;2334;48.710;9.622;2023-06-10T15:29:49;32.90;90.90
4643;DHT22;2334;48.710;9.622;2023-06-10T15:32:16;33.10;91.20
4643;DHT22;2334;48.710;9.622;2023-06-10T15:34:42;33.00;90.70
4643;DHT22;2334;48.710;9.622;2023-06-10T15:37:13;33.00;90.50
4643;DHT22;2334;48.710;9.622;2023-06-10T15:39:40;33.20;90.30
4643;DHT22;2334;48.710;9.622;2023-06-10T15:42:07;33.10;90.40
4643;DHT22;2334;48.710;9.622;2023-06-10T15:44:35;33.00;90.00
4643;DHT22;2334;48.710;9.622;2023-06-10T15:47:02;32.70;90.00
4643;DHT22;2334;48.710;9.622;2023-06-10T15:49:30;32.90;90.20
4643;DHT22;2334;48.710;9.622;2023-06-10T15:51:56;33.50;90.00
4643;DHT22;2334;48.710;9.622;2023-06-10T15:54:23;33.70;89.60
4643;DHT22;2334;48.710;9.622;2023-06-10T15:56:50;33.70;90.30
4643;DHT22;2334;48.710;9.622;2023-06-10T15:59:17;33.50;89.90
4643;DHT22;2334;48.710;9.622;2023-06-10T16:01:45;34.00;89.60
4643;DHT22;2334;48.710;9.622;2023-06-10T16:04:13;34.30;89.40
4643;DHT22;2334;48.710;9.622;2023-06-10T16:06:40;33.70;89.00
4643;DHT22;2334;48.710;9.622;2023-06-10T16:09:06;33.40;89.70
4643;DHT22;2334;48.710;9.622;2023-06-10T16:11:34;33.20;89.60